createdAt,value
2017-11-25T00:00:44.711Z,9.30
2017-11-25T00:03:13.025Z,9.20
2017-11-25T00:05:40.561Z,9.20
2017-11-25T00:08:08.096Z,9.20
2017-11-25T00:10:36.427Z,9.20
2017-11-25T00:13:03.957Z,9.20
2017-11-25T00:15:31.512Z,9.20
2017-11-25T00:17:59.046Z,9.30
2017-11-25T00:20:26.599Z,9.20
2017-11-25T00:22:54.140Z,9.20
2017-11-25T00:25:21.698Z,9.10
2017-11-25T00:27:49.222Z,9.10
2017-11-25T00:30:16.776Z,9.10
2017-11-25T00:32:44.311Z,9.10
2017-11-25T00:35:11.864Z,9.10
2017-11-25T00:37:39.388Z,9.10
2017-11-25T00:40:06.969Z,9.10
2017-11-25T00:42:34.510Z,9.10
2017-11-25T00:45:02.090Z,9.00
2017-11-25T00:47:29.641Z,9.10
2017-11-25T00:49:57.227Z,9.00
2017-11-25T00:52:25.560Z,9.00
2017-11-25T00:54:53.133Z,9.00
2017-11-25T00:57:20.685Z,9.10
2017-11-25T00:59:48.239Z,9.00
2017-11-25T01:02:15.774Z,9.00
2017-11-25T01:04:43.351Z,9.00
2017-11-25T01:07:10.886Z,9.00
2017-11-25T01:09:38.459Z,9.00
2017-11-25T01:12:06.002Z,8.90
2017-11-25T01:14:34.333Z,8.90
2017-11-25T01:17:01.882Z,8.90
2017-11-25T01:19:29.444Z,8.90
2017-11-25T01:21:56.985Z,8.90
2017-11-25T01:24:24.554Z,8.90
2017-11-25T01:26:52.093Z,8.90
2017-11-25T01:29:19.657Z,8.90
2017-11-25T01:31:47.191Z,8.80
2017-11-25T01:34:15.524Z,8.80
2017-11-25T01:36:43.057Z,8.80
2017-11-25T01:39:10.610Z,8.80
2017-11-25T01:41:38.162Z,8.70
2017-11-25T01:44:05.735Z,8.70
2017-11-25T01:46:33.279Z,8.60
2017-11-25T01:49:01.604Z,8.50
2017-11-25T01:51:29.148Z,8.50
2017-11-25T01:53:56.711Z,8.50
2017-11-25T01:56:24.256Z,8.50
2017-11-25T01:58:51.812Z,8.40
2017-11-25T02:01:19.343Z,8.60
2017-11-25T02:03:47.683Z,8.50
2017-11-25T02:06:15.240Z,8.50
2017-11-25T02:08:42.823Z,8.50
2017-11-25T02:11:10.368Z,8.50
2017-11-25T02:13:37.939Z,8.40
2017-11-25T02:16:05.479Z,8.40
2017-11-25T02:18:33.019Z,8.30
2017-11-25T02:21:00.595Z,8.30
2017-11-25T02:23:28.131Z,8.30
2017-11-25T02:25:55.704Z,8.30
2017-11-25T02:28:23.250Z,8.40
2017-11-25T02:30:50.816Z,8.30
2017-11-25T02:33:18.357Z,8.30
2017-11-25T02:35:45.925Z,8.20
2017-11-25T02:38:13.479Z,8.20
2017-11-25T02:40:41.051Z,8.20
2017-11-25T02:43:08.676Z,8.20
2017-11-25T02:45:36.246Z,8.20
2017-11-25T02:48:03.793Z,8.20
2017-11-25T02:50:31.368Z,8.20
2017-11-25T02:52:59.668Z,8.10
2017-11-25T02:55:27.238Z,8.10
2017-11-25T02:57:54.771Z,8.10
2017-11-25T03:00:22.327Z,8.20
2017-11-25T03:02:49.882Z,8.10
2017-11-25T03:05:18.208Z,8.00
2017-11-25T03:07:45.740Z,8.00
2017-11-25T03:10:13.307Z,8.00
2017-11-25T03:12:40.867Z,8.00
2017-11-25T03:15:08.428Z,8.00
2017-11-25T03:17:35.975Z,7.90
2017-11-25T03:20:03.547Z,7.90
2017-11-25T03:22:31.091Z,7.90
2017-11-25T03:24:58.659Z,7.90
2017-11-25T03:27:26.202Z,7.80
2017-11-25T03:33:03.855Z,7.80
2017-11-25T03:35:31.435Z,7.80
2017-11-25T03:37:58.974Z,7.90
2017-11-25T03:40:26.534Z,7.90
2017-11-25T03:42:54.071Z,7.90
2017-11-25T03:45:21.633Z,7.90
2017-11-25T03:47:49.165Z,8.00
2017-11-25T03:50:17.495Z,7.90
2017-11-25T03:52:45.031Z,7.90
2017-11-25T03:55:12.584Z,7.90
2017-11-25T03:57:40.120Z,7.80
2017-11-25T04:00:08.452Z,7.80
2017-11-25T04:02:35.989Z,7.80
2017-11-25T04:05:03.555Z,7.80
2017-11-25T04:07:31.089Z,7.80
2017-11-25T04:09:58.665Z,7.80
2017-11-25T04:12:26.199Z,7.80
2017-11-25T04:14:54.544Z,7.60
2017-11-25T04:17:22.083Z,7.60
2017-11-25T04:19:49.652Z,7.60
2017-11-25T04:22:17.191Z,7.50
2017-11-25T04:24:44.748Z,7.60
2017-11-25T04:27:12.281Z,7.50
2017-11-25T04:29:40.601Z,7.40
2017-11-25T04:32:08.143Z,7.40
2017-11-25T04:34:35.695Z,7.30
2017-11-25T04:37:03.226Z,7.20
2017-11-25T04:39:30.788Z,7.20
2017-11-25T04:41:59.100Z,7.10
2017-11-25T04:44:26.664Z,7.10
2017-11-25T04:46:54.196Z,7.10
2017-11-25T04:49:22.517Z,7.10
2017-11-25T04:51:50.052Z,7.10
2017-11-25T04:54:17.613Z,7.10
2017-11-25T04:56:45.142Z,7.10
2017-11-25T04:59:13.492Z,7.00
2017-11-25T05:01:41.060Z,7.00
2017-11-25T05:04:08.623Z,7.10
2017-11-25T05:06:36.186Z,6.90
2017-11-25T05:09:03.729Z,7.00
2017-11-25T05:11:31.287Z,6.90
2017-11-25T05:13:58.825Z,7.00
2017-11-25T05:16:26.380Z,6.90
2017-11-25T05:18:53.924Z,6.90
2017-11-25T05:21:21.497Z,6.90
2017-11-25T05:23:49.035Z,6.90
2017-11-25T05:26:17.359Z,7.00
2017-11-25T05:28:44.895Z,7.00
2017-11-25T05:31:12.450Z,7.00
2017-11-25T05:33:39.984Z,7.00
2017-11-25T05:36:08.318Z,6.90
2017-11-25T05:38:35.882Z,6.90
2017-11-25T05:41:04.188Z,6.90
2017-11-25T05:43:31.712Z,6.80
2017-11-25T05:45:59.267Z,6.80
2017-11-25T05:48:26.803Z,6.80
2017-11-25T05:50:54.364Z,6.70
2017-11-25T05:53:21.900Z,6.80
2017-11-25T05:55:50.227Z,6.70
2017-11-25T05:58:17.760Z,6.70
2017-11-25T06:00:45.302Z,6.70
2017-11-25T06:03:13.626Z,6.80
2017-11-25T06:05:41.166Z,6.80
2017-11-25T06:08:08.719Z,6.80
2017-11-25T06:10:36.252Z,6.70
2017-11-25T06:13:04.567Z,6.60
2017-11-25T06:15:32.100Z,6.60
2017-11-25T06:17:59.649Z,6.60
2017-11-25T06:20:27.935Z,6.60
2017-11-25T06:22:55.491Z,6.50
2017-11-25T06:25:23.801Z,6.50
2017-11-25T06:27:51.352Z,6.50
2017-11-25T06:51:28.511Z,6.30
2017-11-25T06:53:56.068Z,6.30
2017-11-25T06:56:23.611Z,6.30
2017-11-25T06:58:51.182Z,6.30
2017-11-25T07:01:18.724Z,6.30
2017-11-25T07:03:46.289Z,6.30
2017-11-25T07:06:13.827Z,6.30
2017-11-25T07:08:41.387Z,6.30
2017-11-25T07:11:08.917Z,6.30
2017-11-25T07:13:36.477Z,6.30
2017-11-25T07:16:04.028Z,6.30
2017-11-25T07:18:31.608Z,6.30
2017-11-25T07:20:59.936Z,6.20
2017-11-25T07:23:27.496Z,6.20
2017-11-25T07:25:55.054Z,6.20
2017-11-25T07:28:22.618Z,6.20
2017-11-25T07:30:50.168Z,6.20
2017-11-25T07:33:17.740Z,6.20
2017-11-25T07:35:45.311Z,6.20
2017-11-25T07:38:12.866Z,6.20
2017-11-25T07:40:40.419Z,6.20
2017-11-25T07:43:07.967Z,6.20
2017-11-25T07:45:35.516Z,6.20
2017-11-25T07:48:03.056Z,6.20
2017-11-25T07:50:30.619Z,6.30
2017-11-25T07:52:58.160Z,6.30
2017-11-25T07:55:26.490Z,6.30
2017-11-25T07:57:54.021Z,6.30
2017-11-25T08:00:21.581Z,6.30
2017-11-25T08:02:49.117Z,6.30
2017-11-25T08:05:17.463Z,6.40
2017-11-25T08:07:44.991Z,6.40
2017-11-25T08:10:12.545Z,6.30
2017-11-25T08:12:40.080Z,6.40
2017-11-25T08:15:08.396Z,6.40
2017-11-25T08:17:35.927Z,6.40
2017-11-25T08:20:03.481Z,6.30
2017-11-25T08:22:31.019Z,6.30
2017-11-25T08:24:58.579Z,6.30
2017-11-25T08:27:26.113Z,6.30
2017-11-25T08:29:53.686Z,6.30
2017-11-25T08:32:21.232Z,6.40
2017-11-25T08:34:49.565Z,6.40
2017-11-25T08:37:17.119Z,6.40
2017-11-25T08:39:45.465Z,6.30
2017-11-25T08:42:13.121Z,6.30
2017-11-25T08:44:40.715Z,6.30
2017-11-25T08:47:09.015Z,6.40
2017-11-25T08:49:36.557Z,6.40
2017-11-25T08:52:04.123Z,6.40
2017-11-25T08:54:31.663Z,6.40
2017-11-25T08:56:59.992Z,6.30
2017-11-25T08:59:27.545Z,6.30
2017-11-25T09:01:55.123Z,6.30
2017-11-25T09:04:22.671Z,6.30
2017-11-25T09:06:50.239Z,6.30
2017-11-25T09:09:17.779Z,6.20
2017-11-25T09:11:45.343Z,6.20
2017-11-25T09:14:12.898Z,6.10
2017-11-25T09:16:40.463Z,6.10
2017-11-25T09:19:08.003Z,6.10
2017-11-25T09:21:35.562Z,6.10
2017-11-25T09:24:03.100Z,6.20
2017-11-25T09:26:31.423Z,6.40
2017-11-25T09:28:58.988Z,6.30
2017-11-25T09:31:26.552Z,6.40
2017-11-25T09:33:54.082Z,6.30
2017-11-25T09:36:21.644Z,6.30
2017-11-25T09:38:49.176Z,6.30
2017-11-25T09:41:17.567Z,6.20
2017-11-25T09:43:45.116Z,6.20
2017-11-25T09:46:13.459Z,6.30
2017-11-25T09:48:41.011Z,6.20
2017-11-25T09:51:08.626Z,6.40
2017-11-25T09:53:36.172Z,6.40
2017-11-25T09:56:04.508Z,6.50
2017-11-25T09:58:32.035Z,6.50
2017-11-25T10:00:59.596Z,6.60
2017-11-25T10:03:27.142Z,6.70
2017-11-25T10:05:55.470Z,6.80
2017-11-25T10:08:23.018Z,6.80
2017-11-25T10:10:51.043Z,6.70
2017-11-25T10:13:18.613Z,6.80
2017-11-25T10:15:46.648Z,6.70
2017-11-25T10:18:14.196Z,6.60
2017-11-25T10:20:41.758Z,6.50
2017-11-25T10:23:09.280Z,6.50
2017-11-25T10:25:36.839Z,6.50
2017-11-25T10:28:04.394Z,6.50
2017-11-25T10:30:31.935Z,6.50
2017-11-25T10:33:00.277Z,6.20
2017-11-25T10:35:28.008Z,6.20
2017-11-25T10:37:55.571Z,6.20
2017-11-25T10:40:23.101Z,6.30
2017-11-25T10:42:52.077Z,6.40
2017-11-25T10:45:20.763Z,6.40
2017-11-25T10:47:48.401Z,6.40
2017-11-25T10:50:15.928Z,6.20
2017-11-25T10:52:43.488Z,6.10
2017-11-25T10:55:11.032Z,6.10
2017-11-25T10:57:38.605Z,6.00
2017-11-25T11:00:06.154Z,6.10
2017-11-25T11:02:33.780Z,6.20
2017-11-25T11:05:01.308Z,6.30
2017-11-25T11:07:28.871Z,6.30
2017-11-25T11:09:56.636Z,6.20
2017-11-25T11:12:24.191Z,6.20
2017-11-25T11:14:51.721Z,6.20
2017-11-25T11:17:19.275Z,6.20
2017-11-25T11:19:46.809Z,6.20
2017-11-25T11:22:15.134Z,6.20
2017-11-25T11:24:42.671Z,6.20
2017-11-25T11:27:10.238Z,6.30
2017-11-25T11:29:37.784Z,6.30
2017-11-25T11:32:05.335Z,6.50
2017-11-25T11:34:33.626Z,6.50
2017-11-25T11:37:01.192Z,6.50
2017-11-25T11:39:28.714Z,6.20
2017-11-25T11:41:56.284Z,6.20
2017-11-25T11:44:24.587Z,5.90
2017-11-25T11:46:52.140Z,5.80
2017-11-25T11:49:19.675Z,5.90
2017-11-25T11:51:47.995Z,6.40
2017-11-25T11:54:15.530Z,6.40
2017-11-25T11:56:43.111Z,6.60
2017-11-25T11:59:10.653Z,6.60
2017-11-25T12:01:38.205Z,6.80
2017-11-25T12:04:06.499Z,7.10
2017-11-25T12:06:34.061Z,7.10
2017-11-25T12:09:01.593Z,7.40
2017-11-25T12:11:29.916Z,7.10
2017-11-25T12:13:57.447Z,7.10
2017-11-25T12:16:25.769Z,6.70
2017-11-25T12:18:53.284Z,6.70
2017-11-25T12:21:20.845Z,6.50
2017-11-25T12:23:48.372Z,6.30
2017-11-25T12:26:15.920Z,6.30
2017-11-25T12:28:43.452Z,6.00
2017-11-25T12:31:11.007Z,5.90
2017-11-25T12:33:38.544Z,6.10
2017-11-25T12:36:06.118Z,6.10
2017-11-25T12:38:33.680Z,6.20
2017-11-25T12:41:01.219Z,6.20
2017-11-25T12:43:28.775Z,6.40
2017-11-25T12:45:57.085Z,6.30
2017-11-25T12:48:25.408Z,6.30
2017-11-25T12:50:53.756Z,6.50
2017-11-25T12:53:21.321Z,6.50
2017-11-25T12:55:48.863Z,6.40
2017-11-25T12:58:16.430Z,6.20
2017-11-25T13:00:43.960Z,6.20
2017-11-25T13:03:11.513Z,6.20
2017-11-25T13:05:39.052Z,6.20
2017-11-25T13:08:07.392Z,6.20
2017-11-25T13:10:34.925Z,6.10
2017-11-25T13:13:02.488Z,6.10
2017-11-25T13:15:30.022Z,6.10
2017-11-25T13:17:58.350Z,5.70
2017-11-25T13:20:25.884Z,5.60
2017-11-25T13:22:53.437Z,5.30
2017-11-25T13:25:20.978Z,5.20
2017-11-25T13:27:49.310Z,5.20
2017-11-25T13:30:16.849Z,5.20
2017-11-25T13:32:44.393Z,5.30
2017-11-25T13:35:11.920Z,5.10
2017-11-25T13:37:39.490Z,5.20
2017-11-25T13:40:07.789Z,5.20
2017-11-25T13:42:35.351Z,5.20
2017-11-25T13:45:02.881Z,5.20
2017-11-25T13:47:30.486Z,5.10
2017-11-25T13:49:58.012Z,5.30
2017-11-25T13:52:26.341Z,4.80
2017-11-25T13:54:53.862Z,4.80
2017-11-25T13:57:21.417Z,4.70
2017-11-25T13:59:48.961Z,4.80
2017-11-25T14:02:17.301Z,4.90
2017-11-25T14:04:44.857Z,4.90
2017-11-25T14:07:12.429Z,5.00
2017-11-25T14:09:39.976Z,5.00
2017-11-25T14:12:07.548Z,5.10
2017-11-25T14:14:35.125Z,5.20
2017-11-25T14:17:03.471Z,5.10
2017-11-25T14:19:31.024Z,5.00
2017-11-25T14:21:58.596Z,5.20
2017-11-25T14:24:26.151Z,5.10
2017-11-25T14:26:53.706Z,5.00
2017-11-25T14:29:21.276Z,5.10
2017-11-25T14:31:48.856Z,5.00
2017-11-25T14:34:16.399Z,5.00
2017-11-25T14:36:43.957Z,4.90
2017-11-25T14:39:11.532Z,4.90
2017-11-25T14:41:39.074Z,4.90
2017-11-25T14:44:06.639Z,5.00
2017-11-25T14:46:34.198Z,4.70
2017-11-25T14:49:01.772Z,4.70
2017-11-25T14:51:29.308Z,4.60
2017-11-25T14:53:56.880Z,4.50
2017-11-25T14:56:24.421Z,4.50
2017-11-25T14:58:51.994Z,4.30
2017-11-25T15:01:19.533Z,4.40
2017-11-25T15:03:47.098Z,4.40
2017-11-25T15:06:14.638Z,4.20
2017-11-25T15:08:42.204Z,4.40
2017-11-25T15:11:09.739Z,4.20
2017-11-25T15:13:38.079Z,4.30
2017-11-25T15:16:05.607Z,4.30
2017-11-25T15:18:33.170Z,4.20
2017-11-25T15:21:00.693Z,4.20
2017-11-25T15:23:29.025Z,4.40
2017-11-25T15:25:56.567Z,4.30
2017-11-25T15:28:24.902Z,4.30
2017-11-25T15:30:53.212Z,4.30
2017-11-25T15:33:20.774Z,4.30
2017-11-25T15:35:48.323Z,4.30
2017-11-25T15:38:15.882Z,4.10
2017-11-25T15:40:43.421Z,4.00
2017-11-25T15:43:11.748Z,3.70
2017-11-25T15:45:39.292Z,3.70
2017-11-25T15:48:06.848Z,3.60
2017-11-25T15:50:34.382Z,3.60
2017-11-25T15:53:02.710Z,3.60
2017-11-25T15:55:30.283Z,3.50
2017-11-25T15:57:57.829Z,3.40
2017-11-25T16:00:25.361Z,3.30
2017-11-25T16:02:56.387Z,3.10
2017-11-25T16:05:23.919Z,3.00
2017-11-25T16:07:51.484Z,2.90
2017-11-25T16:10:19.012Z,2.80
2017-11-25T16:12:46.562Z,2.80
2017-11-25T16:15:14.104Z,2.70
2017-11-25T16:17:41.669Z,2.70
2017-11-25T16:20:09.205Z,2.60
2017-11-25T16:22:37.531Z,2.50
2017-11-25T16:25:05.075Z,2.40
2017-11-25T16:27:32.638Z,2.50
2017-11-25T16:30:00.179Z,2.60
2017-11-25T16:32:27.754Z,2.60
2017-11-25T16:34:55.289Z,2.60
2017-11-25T16:37:22.859Z,2.50
2017-11-25T16:39:50.394Z,2.40
2017-11-25T16:42:18.734Z,2.40
2017-11-25T16:44:46.273Z,2.40
2017-11-25T16:47:13.804Z,2.40
2017-11-25T16:49:41.364Z,2.50
2017-11-25T16:52:08.896Z,2.40
2017-11-25T16:54:36.460Z,2.60
2017-11-25T16:57:04.761Z,2.60
2017-11-25T16:59:32.321Z,2.60
2017-11-25T17:02:00.736Z,2.60
2017-11-25T17:04:28.434Z,2.60
2017-11-25T17:06:56.030Z,2.60
2017-11-25T17:09:23.587Z,2.70
2017-11-25T17:11:51.154Z,2.70
2017-11-25T17:14:18.720Z,2.80
2017-11-25T17:16:46.271Z,2.80
2017-11-25T17:19:13.856Z,2.90
2017-11-25T17:21:41.396Z,3.00
2017-11-25T17:24:08.971Z,3.10
2017-11-25T17:26:36.528Z,3.10
2017-11-25T17:29:04.089Z,3.20
2017-11-25T17:31:31.627Z,3.30
2017-11-25T17:33:59.195Z,3.10
2017-11-25T17:36:26.737Z,2.80
2017-11-25T17:38:54.324Z,2.80
2017-11-25T17:41:21.849Z,3.00
2017-11-25T17:43:50.167Z,2.90
2017-11-25T17:46:17.712Z,2.90
2017-11-25T17:48:45.275Z,2.90
2017-11-25T17:51:12.815Z,2.80
2017-11-25T17:53:41.147Z,2.70
2017-11-25T17:56:08.682Z,2.70
2017-11-25T17:58:36.241Z,2.70
2017-11-25T18:01:03.776Z,2.80
2017-11-25T18:03:32.097Z,2.70
2017-11-25T18:05:59.635Z,2.70
2017-11-25T18:08:27.192Z,2.80
2017-11-25T18:10:54.724Z,2.80
2017-11-25T18:13:22.286Z,2.80
2017-11-25T18:15:50.580Z,2.70
2017-11-25T18:18:18.141Z,2.70
2017-11-25T18:20:45.670Z,2.80
2017-11-25T18:23:14.004Z,2.80
2017-11-25T18:25:41.533Z,2.70
2017-11-25T18:28:09.096Z,2.80
2017-11-25T18:30:36.636Z,2.80
2017-11-25T18:33:04.964Z,2.70
2017-11-25T18:35:32.496Z,2.70
2017-11-25T18:38:00.054Z,2.70
2017-11-25T18:40:27.596Z,2.70
2017-11-25T18:42:55.922Z,2.70
2017-11-25T18:45:23.451Z,2.60
2017-11-25T18:47:51.785Z,2.60
2017-11-25T18:50:19.357Z,2.60
2017-11-25T18:52:47.667Z,2.70
2017-11-25T18:55:15.235Z,2.70
2017-11-25T18:57:42.780Z,2.70
2017-11-25T19:00:10.344Z,2.70
2017-11-25T19:02:37.881Z,2.70
2017-11-25T19:05:06.201Z,2.70
2017-11-25T19:07:33.734Z,2.60
2017-11-25T19:10:01.288Z,2.70
2017-11-25T19:12:28.828Z,2.70
2017-11-25T19:14:57.159Z,2.70
2017-11-25T19:17:24.679Z,2.70
2017-11-25T19:19:53.020Z,2.60
2017-11-25T19:22:20.570Z,2.60
2017-11-25T19:24:48.124Z,2.70
2017-11-25T19:27:15.645Z,2.70
2017-11-25T19:29:43.212Z,2.70
2017-11-25T19:32:10.773Z,2.60
2017-11-25T19:34:38.339Z,2.70
2017-11-25T19:37:05.874Z,2.60
2017-11-25T19:39:34.200Z,2.60
2017-11-25T19:42:01.788Z,2.60
2017-11-25T19:44:30.250Z,2.60
2017-11-25T19:46:57.883Z,2.60
2017-11-25T19:49:25.540Z,2.70
2017-11-25T19:51:53.077Z,2.70
2017-11-25T19:54:20.740Z,2.60
2017-11-25T19:56:49.092Z,2.50
2017-11-25T19:59:16.661Z,2.50
2017-11-25T20:01:44.964Z,2.40
2017-11-25T20:04:12.672Z,2.40
2017-11-25T20:06:40.306Z,2.50
2017-11-25T20:09:07.959Z,2.50
2017-11-25T20:11:35.521Z,2.40
2017-11-25T20:14:03.240Z,2.50
2017-11-25T20:16:30.897Z,2.50
2017-11-25T20:18:58.516Z,2.50
2017-11-25T20:21:26.109Z,2.40
2017-11-25T20:23:53.667Z,2.50
2017-11-25T20:26:21.304Z,2.50
2017-11-25T20:28:48.880Z,2.40
2017-11-25T20:31:16.530Z,2.50
2017-11-25T20:33:44.208Z,2.30
2017-11-25T20:36:11.824Z,2.30
2017-11-25T20:38:39.455Z,2.20
2017-11-25T20:41:07.814Z,2.20
2017-11-25T20:43:35.417Z,2.20
2017-11-25T20:46:03.750Z,2.10
2017-11-25T20:48:31.405Z,2.10
2017-11-25T20:50:59.036Z,2.00
2017-11-25T20:53:26.652Z,2.00
2017-11-25T20:55:54.991Z,1.90
2017-11-25T20:58:22.559Z,1.90
2017-11-25T21:00:50.241Z,1.90
2017-11-25T21:03:17.897Z,1.90
2017-11-25T21:05:45.508Z,1.80
2017-11-25T21:08:13.208Z,1.70
2017-11-25T21:10:41.573Z,1.70
2017-11-25T21:13:09.147Z,1.70
2017-11-25T21:15:36.865Z,1.60
2017-11-25T21:18:05.275Z,1.80
2017-11-25T21:20:32.986Z,1.80
2017-11-25T21:23:00.609Z,1.70
2017-11-25T21:25:28.272Z,1.70
2017-11-25T21:27:55.883Z,1.60
2017-11-25T21:30:23.601Z,1.60
2017-11-25T21:32:51.283Z,1.70
2017-11-25T21:35:18.927Z,1.80
2017-11-25T21:37:46.564Z,2.00
2017-11-25T21:40:14.299Z,2.10
2017-11-25T21:42:41.980Z,2.10
2017-11-25T21:45:09.629Z,2.20
2017-11-25T21:47:37.981Z,2.10
2017-11-25T21:50:06.440Z,2.10
2017-11-25T21:52:34.019Z,2.10
2017-11-25T21:55:01.695Z,2.10
2017-11-25T21:57:29.316Z,2.10
2017-11-25T21:59:56.868Z,2.10
2017-11-25T22:02:24.429Z,2.10
2017-11-25T22:04:52.735Z,2.00
2017-11-25T22:07:20.320Z,2.00
2017-11-25T22:09:47.876Z,2.00
2017-11-25T22:12:15.442Z,2.00
2017-11-25T22:14:42.990Z,2.00
2017-11-25T22:17:10.561Z,2.00
2017-11-25T22:19:38.150Z,2.00
2017-11-25T22:22:05.769Z,2.00
2017-11-25T22:24:33.323Z,1.90
2017-11-25T22:27:00.919Z,1.80
2017-11-25T22:29:29.259Z,1.60
2017-11-25T22:32:02.628Z,1.60
2017-11-25T22:34:30.173Z,1.70
2017-11-25T22:36:57.733Z,1.70
2017-11-25T22:39:25.273Z,1.70
2017-11-25T22:41:53.597Z,1.70
2017-11-25T22:44:21.132Z,1.70
2017-11-25T22:46:48.696Z,1.70
2017-11-25T22:49:16.232Z,1.80
2017-11-25T22:51:44.561Z,1.80
2017-11-25T22:54:12.098Z,1.80
2017-11-25T22:56:39.663Z,1.80
2017-11-25T22:59:07.194Z,1.90
2017-11-25T23:01:34.769Z,1.90
2017-11-25T23:04:02.300Z,1.80
2017-11-25T23:06:30.625Z,1.90
2017-11-25T23:08:58.161Z,1.90
2017-11-25T23:11:25.721Z,1.90
2017-11-25T23:13:53.259Z,1.90
2017-11-25T23:16:21.567Z,2.00
2017-11-25T23:18:49.120Z,2.00
2017-11-25T23:21:16.652Z,2.00
2017-11-25T23:23:44.971Z,2.00
2017-11-25T23:26:12.504Z,2.00
2017-11-25T23:28:40.076Z,2.00
2017-11-25T23:31:07.608Z,1.90
2017-11-25T23:33:35.950Z,1.90
2017-11-25T23:36:03.516Z,1.90
2017-11-25T23:38:31.079Z,1.90
2017-11-25T23:40:58.622Z,2.00
2017-11-25T23:43:26.197Z,2.10
2017-11-25T23:45:53.753Z,2.00
2017-11-25T23:48:21.331Z,1.90
2017-11-25T23:50:58.225Z,2.00
2017-11-25T23:53:26.576Z,2.00
2017-11-25T23:55:54.127Z,2.00
2017-11-25T23:58:21.692Z,2.10
